createdAt,value
2023-04-16T00:01:40.688Z,95.15
2023-04-16T00:04:08.678Z,90.95
2023-04-16T00:06:36.583Z,91.65
2023-04-16T00:09:05.709Z,87.13
2023-04-16T00:11:33.845Z,88.43
2023-04-16T00:14:01.760Z,83.50
2023-04-16T00:16:30.066Z,85.68
2023-04-16T00:18:57.651Z,82.53
2023-04-16T00:21:25.412Z,95.25
2023-04-16T00:23:53.085Z,84.45
2023-04-16T00:26:22.072Z,81.72
2023-04-16T00:28:49.848Z,82.28
2023-04-16T00:31:17.847Z,72.38
2023-04-16T00:33:45.412Z,82.43
2023-04-16T00:36:14.434Z,80.70
2023-04-16T00:38:42.522Z,74.97
2023-04-16T00:41:10.112Z,89.50
2023-04-16T00:43:39.372Z,80.03
2023-04-16T00:46:07.226Z,78.10
2023-04-16T00:48:35.875Z,71.95
2023-04-16T00:51:05.158Z,68.82
2023-04-16T00:53:33.905Z,69.00
2023-04-16T00:56:03.063Z,71.63
2023-04-16T00:58:31.534Z,62.38
2023-04-16T01:01:00.784Z,76.10
2023-04-16T01:03:37.571Z,68.45
2023-04-16T01:06:06.449Z,88.07
2023-04-16T01:08:34.129Z,80.38
2023-04-16T01:11:02.286Z,75.65
2023-04-16T01:13:30.934Z,74.70
2023-04-16T01:16:00.024Z,66.45
2023-04-16T01:18:27.817Z,72.22
2023-04-16T01:20:56.825Z,71.53
2023-04-16T01:23:24.898Z,76.50
2023-04-16T01:25:52.750Z,62.10
2023-04-16T01:28:20.483Z,67.40
2023-04-16T01:30:48.146Z,74.97
2023-04-16T01:33:15.898Z,75.50
2023-04-16T01:35:43.779Z,65.80
2023-04-16T01:38:12.769Z,69.18
2023-04-16T01:40:40.546Z,68.15
2023-04-16T01:43:08.286Z,62.80
2023-04-16T01:45:36.442Z,69.75
2023-04-16T01:48:04.593Z,71.03
2023-04-16T01:50:33.398Z,68.10
2023-04-16T01:53:01.220Z,65.50
2023-04-16T01:55:30.372Z,69.25
2023-04-16T01:57:58.375Z,76.05
2023-04-16T02:00:25.980Z,64.90
2023-04-16T02:02:54.108Z,65.00
2023-04-16T02:05:21.953Z,59.55
2023-04-16T02:07:49.648Z,62.90
2023-04-16T02:10:17.627Z,63.65
2023-04-16T02:12:46.920Z,65.75
2023-04-16T02:15:15.010Z,66.88
2023-04-16T02:17:42.843Z,74.88
2023-04-16T02:20:11.378Z,81.88
2023-04-16T02:22:38.969Z,79.85
2023-04-16T02:25:07.222Z,81.30
2023-04-16T02:27:35.568Z,76.63
2023-04-16T02:30:05.280Z,77.53
2023-04-16T02:32:33.349Z,76.05
2023-04-16T02:35:01.111Z,77.72
2023-04-16T02:37:28.663Z,83.95
2023-04-16T02:39:56.712Z,81.60
2023-04-16T02:42:24.444Z,86.25
2023-04-16T02:44:51.997Z,74.28
2023-04-16T02:47:21.468Z,84.68
2023-04-16T02:49:49.280Z,80.43
2023-04-16T02:52:17.052Z,69.50
2023-04-16T02:54:44.789Z,84.18
2023-04-16T02:57:12.402Z,70.18
2023-04-16T02:59:39.951Z,77.45
2023-04-16T03:02:07.764Z,82.32
2023-04-16T03:04:37.129Z,77.68
2023-04-16T03:07:04.900Z,74.88
2023-04-16T03:09:32.711Z,87.05
2023-04-16T03:12:00.705Z,77.03
2023-04-16T03:14:28.992Z,74.45
2023-04-16T03:16:56.862Z,76.03
2023-04-16T03:19:24.665Z,86.72
2023-04-16T03:21:53.777Z,85.78
2023-04-16T03:24:21.485Z,93.28
2023-04-16T03:26:49.201Z,86.50
2023-04-16T03:29:16.749Z,70.32
2023-04-16T03:31:44.507Z,73.00
2023-04-16T03:34:12.123Z,76.65
2023-04-16T03:36:39.731Z,80.75
2023-04-16T03:39:09.195Z,68.72
2023-04-16T03:41:37.944Z,79.00
2023-04-16T03:44:05.622Z,80.97
2023-04-16T03:46:33.697Z,69.70
2023-04-16T03:49:01.727Z,65.35
2023-04-16T03:51:29.476Z,80.90
2023-04-16T03:53:57.192Z,69.65
2023-04-16T03:56:26.213Z,78.97
2023-04-16T03:58:53.853Z,62.42
2023-04-16T04:01:21.502Z,59.17
2023-04-16T04:03:49.460Z,58.83
2023-04-16T04:06:17.263Z,68.55
2023-04-16T04:08:45.564Z,57.95
2023-04-16T04:11:13.408Z,59.42
2023-04-16T04:13:42.458Z,49.08
2023-04-16T04:16:10.268Z,53.30
2023-04-16T04:18:37.980Z,47.35
2023-04-16T04:21:06.405Z,45.55
2023-04-16T04:23:34.698Z,46.53
2023-04-16T04:26:02.772Z,58.17
2023-04-16T04:28:30.572Z,48.78
2023-04-16T04:31:00.332Z,52.08
2023-04-16T04:33:28.307Z,60.00
2023-04-16T04:35:55.830Z,44.40
2023-04-16T04:38:23.619Z,52.55
2023-04-16T04:40:51.768Z,55.85
2023-04-16T04:43:19.522Z,49.65
2023-04-16T04:45:47.509Z,55.97
2023-04-16T04:48:16.822Z,56.33
2023-04-16T04:50:45.386Z,48.58
2023-04-16T04:53:13.374Z,54.17
2023-04-16T04:55:40.951Z,44.55
2023-04-16T04:58:09.062Z,52.42
2023-04-16T05:00:37.341Z,59.25
2023-04-16T05:03:09.695Z,50.88
2023-04-16T05:05:39.250Z,48.95
2023-04-16T05:10:36.228Z,57.63
2023-04-16T05:13:03.943Z,63.17
2023-04-16T05:15:32.102Z,64.85
2023-04-16T05:17:59.648Z,61.65
2023-04-16T05:20:27.460Z,52.47
2023-04-16T05:22:56.528Z,47.85
2023-04-16T05:25:24.196Z,58.42
2023-04-16T05:27:52.074Z,48.05
2023-04-16T05:30:19.905Z,61.67
2023-04-16T05:32:47.488Z,69.40
2023-04-16T05:35:17.343Z,59.15
2023-04-16T05:37:45.420Z,63.05
2023-04-16T05:40:14.675Z,61.90
2023-04-16T05:42:42.749Z,56.35
2023-04-16T05:45:11.038Z,52.85
2023-04-16T05:47:38.795Z,55.97
2023-04-16T05:50:07.688Z,69.85
2023-04-16T05:52:35.975Z,68.20
2023-04-16T05:55:03.645Z,56.80
2023-04-16T05:57:33.623Z,57.28
2023-04-16T06:00:01.852Z,56.83
2023-04-16T06:02:30.215Z,66.25
2023-04-16T06:04:57.951Z,57.83
2023-04-16T06:07:25.613Z,69.40
2023-04-16T06:09:53.811Z,51.33
2023-04-16T06:12:21.646Z,66.90
2023-04-16T06:14:50.661Z,62.35
2023-04-16T06:17:18.225Z,62.67
2023-04-16T06:19:46.138Z,67.70
2023-04-16T06:22:13.940Z,69.13
2023-04-16T06:24:42.100Z,73.18
2023-04-16T06:27:09.828Z,70.82
2023-04-16T06:29:41.387Z,74.80
2023-04-16T06:32:11.253Z,74.10
2023-04-16T06:34:39.063Z,79.53
2023-04-16T06:37:09.098Z,66.97
2023-04-16T06:39:38.268Z,73.03
2023-04-16T06:42:05.994Z,71.45
2023-04-16T06:44:33.586Z,80.88
2023-04-16T06:47:01.398Z,78.07
2023-04-16T06:49:30.904Z,81.63
2023-04-16T06:51:58.544Z,91.78
2023-04-16T06:54:26.392Z,88.57
2023-04-16T06:56:54.032Z,103.18
2023-04-16T06:59:21.681Z,90.35
2023-04-16T07:01:49.521Z,101.60
2023-04-16T07:04:17.347Z,95.90
2023-04-16T07:06:46.454Z,102.35
2023-04-16T07:09:14.162Z,115.57
2023-04-16T07:11:42.231Z,112.55
2023-04-16T07:14:09.809Z,107.97
2023-04-16T07:16:37.612Z,108.35
2023-04-16T07:19:05.495Z,117.30
2023-04-16T07:21:33.195Z,126.93
2023-04-16T07:24:02.743Z,126.28
2023-04-16T07:26:30.585Z,111.50
2023-04-16T07:28:58.125Z,92.90
2023-04-16T07:31:25.949Z,94.85
2023-04-16T07:33:53.878Z,83.90
2023-04-16T07:36:21.447Z,82.85
2023-04-16T07:38:49.512Z,84.82
2023-04-16T07:41:19.124Z,75.90
2023-04-16T07:43:46.700Z,84.78
2023-04-16T07:46:14.398Z,70.60
2023-04-16T07:48:42.476Z,72.60
2023-04-16T07:51:10.138Z,64.07
2023-04-16T07:53:38.058Z,76.50
2023-04-16T07:56:06.366Z,81.10
2023-04-16T07:58:36.128Z,79.13
2023-04-16T08:01:04.136Z,70.93
2023-04-16T08:03:32.438Z,71.28
2023-04-16T08:06:00.221Z,62.83
2023-04-16T08:08:27.961Z,66.25
2023-04-16T08:10:56.154Z,62.67
2023-04-16T08:13:24.053Z,57.95
2023-04-16T08:15:53.565Z,62.85
2023-04-16T08:18:21.331Z,59.17
2023-04-16T08:20:48.934Z,55.15
2023-04-16T08:23:16.652Z,59.90
2023-04-16T08:25:44.390Z,55.67
2023-04-16T08:28:12.210Z,54.20
2023-04-16T08:30:40.048Z,51.35
2023-04-16T08:33:09.265Z,55.17
2023-04-16T08:35:36.855Z,53.30
2023-04-16T08:38:04.556Z,51.42
2023-04-16T08:40:34.969Z,49.00
2023-04-16T08:43:05.971Z,61.70
2023-04-16T08:45:35.190Z,56.10
2023-04-16T08:48:05.868Z,54.08
2023-04-16T08:50:36.083Z,61.00
2023-04-16T08:53:05.921Z,59.50
2023-04-16T08:55:37.774Z,59.78
2023-04-16T08:58:09.533Z,79.88
2023-04-16T09:00:39.442Z,71.03
2023-04-16T09:03:07.945Z,78.50
2023-04-16T09:05:38.356Z,75.60
2023-04-16T09:08:07.444Z,75.43
2023-04-16T09:10:35.367Z,65.18
2023-04-16T09:13:05.710Z,67.60
2023-04-16T09:15:35.486Z,67.75
2023-04-16T09:18:03.901Z,64.55
2023-04-16T09:20:31.735Z,69.68
2023-04-16T09:23:00.738Z,62.20
2023-04-16T09:25:33.119Z,74.65
2023-04-16T09:28:00.874Z,61.78
2023-04-16T09:30:28.797Z,62.92
2023-04-16T09:33:15.195Z,69.60
2023-04-16T09:35:47.235Z,60.22
2023-04-16T09:38:17.221Z,60.53
2023-04-16T09:40:45.573Z,59.95
2023-04-16T09:43:15.478Z,52.65
2023-04-16T09:45:53.577Z,51.50
2023-04-16T09:48:31.338Z,47.88
2023-04-16T09:50:59.911Z,62.28
2023-04-16T09:53:30.963Z,46.15
2023-04-16T09:55:58.773Z,55.60
2023-04-16T09:58:26.857Z,46.22
2023-04-16T10:00:56.267Z,55.60
2023-04-16T10:03:30.563Z,49.67
2023-04-16T10:06:00.622Z,51.85
2023-04-16T10:08:29.782Z,45.38
2023-04-16T10:10:58.291Z,49.67
2023-04-16T10:13:25.972Z,49.75
2023-04-16T10:15:55.997Z,37.53
2023-04-16T10:18:24.308Z,38.22
2023-04-16T10:20:52.247Z,38.92
2023-04-16T10:23:20.475Z,43.03
2023-04-16T10:25:50.172Z,41.88
2023-04-16T10:28:19.070Z,35.70
2023-04-16T10:30:49.727Z,36.95
2023-04-16T10:33:17.895Z,36.53
2023-04-16T10:35:52.406Z,34.38
2023-04-16T10:38:28.918Z,40.95
2023-04-16T10:41:03.600Z,32.90
2023-04-16T10:43:33.836Z,44.92
2023-04-16T10:46:20.141Z,31.70
2023-04-16T10:48:50.385Z,35.45
2023-04-16T10:51:27.286Z,36.13
2023-04-16T10:53:55.907Z,35.05
2023-04-16T10:56:25.812Z,38.70
2023-04-16T10:58:54.157Z,42.92
2023-04-16T11:01:30.914Z,41.63
2023-04-16T11:03:59.856Z,38.45
2023-04-16T11:06:28.854Z,34.15
2023-04-16T11:08:56.596Z,38.58
2023-04-16T11:11:26.455Z,31.45
2023-04-16T11:13:56.050Z,32.65
2023-04-16T11:16:25.242Z,30.73
2023-04-16T11:18:53.967Z,34.85
2023-04-16T11:21:23.852Z,29.67
2023-04-16T11:23:53.151Z,34.28
2023-04-16T11:26:23.583Z,34.65
2023-04-16T11:28:53.599Z,34.90
2023-04-16T11:31:21.470Z,55.33
2023-04-16T11:33:49.292Z,31.92
2023-04-16T11:36:17.133Z,29.42
2023-04-16T11:38:44.833Z,28.60
2023-04-16T11:41:20.112Z,30.58
2023-04-16T11:43:47.752Z,33.65
2023-04-16T11:46:26.907Z,32.38
2023-04-16T11:48:55.934Z,30.83
2023-04-16T11:51:24.260Z,35.13
2023-04-16T11:53:53.177Z,36.65
2023-04-16T11:56:27.472Z,38.65
2023-04-16T11:59:12.393Z,34.00
2023-04-16T12:01:43.548Z,33.67
2023-04-16T12:04:14.007Z,30.08
2023-04-16T12:06:42.147Z,32.75
2023-04-16T12:09:26.020Z,33.33
2023-04-16T12:11:54.046Z,30.52
2023-04-16T12:14:22.957Z,29.23
2023-04-16T12:16:52.303Z,31.98
2023-04-16T12:19:20.446Z,31.63
2023-04-16T12:21:50.109Z,33.70
2023-04-16T12:24:19.169Z,35.38
2023-04-16T12:26:48.321Z,35.90
2023-04-16T12:29:17.812Z,31.33
2023-04-16T12:31:46.362Z,41.60
2023-04-16T12:34:16.320Z,32.70
2023-04-16T12:36:45.493Z,35.42
2023-04-16T12:39:14.267Z,42.17
2023-04-16T12:41:43.776Z,36.53
2023-04-16T12:44:15.917Z,34.10
2023-04-16T12:46:44.700Z,39.58
2023-04-16T12:49:12.518Z,34.30
2023-04-16T12:51:41.959Z,37.53
2023-04-16T12:54:10.015Z,37.15
2023-04-16T12:56:38.067Z,39.58
2023-04-16T12:59:05.859Z,35.05
2023-04-16T13:01:33.960Z,37.28
2023-04-16T13:04:01.862Z,39.72
2023-04-16T13:06:30.820Z,33.78
2023-04-16T13:09:00.114Z,34.42
2023-04-16T13:11:27.848Z,29.77
2023-04-16T13:13:55.580Z,32.92
2023-04-16T13:16:23.360Z,30.10
2023-04-16T13:18:51.471Z,32.88
2023-04-16T13:21:19.314Z,34.47
2023-04-16T13:23:46.971Z,33.38
2023-04-16T13:26:15.938Z,27.27
2023-04-16T13:28:43.719Z,24.05
2023-04-16T13:31:11.453Z,29.45
2023-04-16T13:33:39.433Z,30.60
2023-04-16T13:36:08.631Z,26.15
2023-04-16T13:38:36.449Z,24.77
2023-04-16T13:41:04.059Z,26.40
2023-04-16T13:43:33.183Z,26.23
2023-04-16T13:46:01.170Z,25.23
2023-04-16T13:48:28.950Z,27.48
2023-04-16T13:50:56.686Z,27.98
2023-04-16T13:53:24.503Z,36.13
2023-04-16T13:55:52.129Z,27.27
2023-04-16T13:58:20.115Z,24.92
2023-04-16T14:00:49.294Z,26.08
2023-04-16T14:03:17.632Z,36.03
2023-04-16T14:05:45.454Z,29.90
2023-04-16T14:08:13.165Z,25.25
2023-04-16T14:10:40.846Z,26.20
2023-04-16T14:13:08.601Z,21.58
2023-04-16T14:15:36.800Z,22.50
2023-04-16T14:18:05.982Z,20.40
2023-04-16T14:20:34.541Z,22.90
2023-04-16T14:23:02.256Z,26.65
2023-04-16T14:25:29.982Z,26.13
2023-04-16T14:27:59.436Z,20.60
2023-04-16T14:30:27.225Z,22.55
2023-04-16T14:32:54.860Z,22.88
2023-04-16T14:35:24.273Z,23.48
2023-04-16T14:37:52.249Z,18.63
2023-04-16T14:40:19.901Z,24.90
2023-04-16T14:42:48.172Z,26.50
2023-04-16T14:45:15.830Z,23.05
2023-04-16T14:47:43.854Z,24.45
2023-04-16T14:50:13.154Z,22.55
2023-04-16T14:52:43.697Z,19.80
2023-04-16T14:55:11.379Z,19.50
2023-04-16T14:57:39.083Z,20.70
2023-04-16T15:00:08.046Z,19.25
2023-04-16T15:02:36.263Z,22.27
2023-04-16T15:05:04.254Z,23.85
2023-04-16T15:07:32.377Z,17.55
2023-04-16T15:10:01.404Z,19.48
2023-04-16T15:12:29.133Z,20.80
2023-04-16T15:14:56.856Z,18.27
2023-04-16T15:17:24.433Z,24.08
2023-04-16T15:19:52.164Z,16.80
2023-04-16T15:22:20.185Z,18.30
2023-04-16T15:24:47.795Z,21.08
2023-04-16T15:27:18.022Z,15.15
2023-04-16T15:29:45.788Z,19.65
2023-04-16T15:32:13.339Z,22.20
2023-04-16T15:34:41.089Z,18.38
2023-04-16T15:37:08.772Z,16.73
2023-04-16T15:39:36.711Z,16.17
2023-04-16T15:42:07.174Z,22.13
2023-04-16T15:44:37.401Z,18.15
2023-04-16T15:47:05.226Z,16.27
2023-04-16T15:49:32.978Z,19.55
2023-04-16T15:52:00.795Z,26.45
2023-04-16T15:54:29.349Z,18.95
2023-04-16T15:56:57.758Z,19.17
2023-04-16T15:59:25.958Z,22.00
2023-04-16T16:01:55.104Z,17.58
2023-04-16T16:04:23.409Z,18.40
2023-04-16T16:06:51.086Z,19.52
2023-04-16T16:09:18.858Z,20.00
2023-04-16T16:11:47.395Z,19.55
2023-04-16T16:14:16.347Z,16.90
2023-04-16T16:16:45.867Z,17.73
2023-04-16T16:19:15.044Z,16.95
2023-04-16T16:21:42.751Z,15.98
2023-04-16T16:24:12.202Z,20.48
2023-04-16T16:26:39.926Z,17.70
2023-04-16T16:29:07.613Z,17.65
2023-04-16T16:31:35.256Z,22.48
2023-04-16T16:34:02.987Z,16.70
2023-04-16T16:36:32.096Z,21.25
2023-04-16T16:38:59.661Z,19.85
2023-04-16T16:41:27.556Z,22.05
2023-04-16T16:43:55.233Z,18.95
2023-04-16T16:46:22.891Z,15.43
2023-04-16T16:48:50.631Z,18.58
2023-04-16T16:51:18.276Z,22.25
2023-04-16T16:53:47.539Z,14.75
2023-04-16T16:56:15.513Z,22.25
2023-04-16T16:58:43.252Z,19.88
2023-04-16T17:01:10.838Z,16.48
2023-04-16T17:03:38.833Z,20.95
2023-04-16T17:06:06.999Z,22.83
2023-04-16T17:08:35.655Z,16.58
2023-04-16T17:11:05.096Z,16.42
2023-04-16T17:13:32.861Z,17.05
2023-04-16T17:16:00.529Z,16.98
2023-04-16T17:18:28.307Z,15.10
2023-04-16T17:20:56.041Z,25.80
2023-04-16T17:23:24.246Z,15.45
2023-04-16T17:25:54.460Z,21.17
2023-04-16T17:28:23.573Z,15.20
2023-04-16T17:30:52.184Z,23.05
2023-04-16T17:33:20.093Z,16.52
2023-04-16T17:35:47.825Z,16.40
2023-04-16T17:38:15.376Z,19.05
2023-04-16T17:40:43.243Z,16.80
2023-04-16T17:43:11.079Z,18.17
2023-04-16T17:45:40.313Z,13.55
2023-04-16T17:48:08.133Z,16.98
2023-04-16T17:50:38.192Z,25.30
2023-04-16T17:53:07.037Z,19.02
2023-04-16T17:55:34.929Z,18.88
2023-04-16T17:58:02.755Z,14.95
2023-04-16T18:00:30.393Z,18.77
2023-04-16T18:03:02.237Z,22.23
2023-04-16T18:05:30.675Z,18.23
2023-04-16T18:10:29.620Z,18.80
2023-04-16T18:12:57.482Z,17.65
2023-04-16T18:15:25.213Z,18.48
2023-04-16T18:17:52.980Z,21.13
2023-04-16T18:20:22.231Z,21.60
2023-04-16T18:22:49.945Z,20.85
2023-04-16T18:25:19.851Z,20.02
2023-04-16T18:27:50.248Z,18.27
2023-04-16T18:30:23.462Z,14.30
2023-04-16T18:33:10.088Z,17.30
2023-04-16T18:35:43.505Z,19.15
2023-04-16T18:38:11.795Z,18.75
2023-04-16T18:40:39.688Z,17.80
2023-04-16T18:43:07.447Z,18.30
2023-04-16T18:45:35.757Z,19.33
2023-04-16T18:48:03.471Z,19.73
2023-04-16T18:50:32.046Z,16.50
2023-04-16T18:53:01.163Z,35.08
2023-04-16T18:55:29.068Z,23.52
2023-04-16T18:57:56.959Z,16.67
2023-04-16T19:00:24.695Z,15.65
2023-04-16T19:02:52.586Z,19.33
2023-04-16T19:05:20.573Z,34.88
2023-04-16T19:07:48.325Z,26.13
2023-04-16T19:10:17.766Z,18.92
2023-04-16T19:12:45.792Z,17.08
2023-04-16T19:15:14.137Z,20.35
2023-04-16T19:17:42.070Z,21.23
2023-04-16T19:20:10.719Z,17.40
2023-04-16T19:22:39.338Z,24.90
2023-04-16T19:25:07.616Z,24.27
2023-04-16T19:27:37.242Z,17.23
2023-04-16T19:30:06.338Z,17.55
2023-04-16T19:32:34.177Z,23.95
2023-04-16T19:35:02.208Z,24.77
2023-04-16T19:37:30.198Z,25.85
2023-04-16T19:39:57.757Z,16.63
2023-04-16T19:42:26.125Z,19.10
2023-04-16T19:44:55.385Z,20.38
2023-04-16T19:47:22.936Z,26.05
2023-04-16T19:49:50.876Z,25.50
2023-04-16T19:52:18.507Z,22.60
2023-04-16T19:54:46.110Z,21.13
2023-04-16T19:57:14.054Z,16.80
2023-04-16T19:59:41.776Z,19.85
2023-04-16T20:02:10.864Z,19.92
2023-04-16T20:04:38.726Z,20.63
2023-04-16T20:07:06.389Z,23.67
2023-04-16T20:09:33.975Z,19.23
2023-04-16T20:12:01.786Z,20.52
2023-04-16T20:14:29.625Z,23.25
2023-04-16T20:16:57.353Z,19.13
2023-04-16T20:19:26.634Z,20.30
2023-04-16T20:21:54.334Z,16.75
2023-04-16T20:24:21.882Z,17.98
2023-04-16T20:26:49.728Z,18.48
2023-04-16T20:29:17.430Z,17.80
2023-04-16T20:31:45.110Z,20.52
2023-04-16T20:34:12.933Z,27.25
2023-04-16T20:36:42.050Z,15.13
2023-04-16T20:39:09.837Z,20.67
2023-04-16T20:41:38.532Z,15.25
2023-04-16T20:44:06.248Z,19.05
2023-04-16T20:46:33.928Z,30.55
2023-04-16T20:49:01.898Z,17.50
2023-04-16T20:51:29.706Z,17.75
2023-04-16T20:53:59.022Z,20.83
2023-04-16T20:56:26.750Z,17.92
2023-04-16T20:58:54.681Z,17.10
2023-04-16T21:01:22.263Z,20.25
2023-04-16T21:03:50.184Z,17.40
2023-04-16T21:06:18.013Z,17.00
2023-04-16T21:08:45.690Z,17.33
2023-04-16T21:11:14.946Z,22.88
2023-04-16T21:13:42.617Z,24.77
2023-04-16T21:16:10.225Z,19.05
2023-04-16T21:18:38.110Z,28.92
2023-04-16T21:21:05.971Z,19.13
2023-04-16T21:23:33.637Z,27.70
2023-04-16T21:26:01.343Z,22.42
2023-04-16T21:28:30.881Z,20.25
2023-04-16T21:30:58.487Z,20.35
2023-04-16T21:33:27.170Z,19.65
2023-04-16T21:35:55.336Z,19.05
2023-04-16T21:38:23.212Z,17.38
2023-04-16T21:40:51.268Z,18.80
2023-04-16T21:43:19.090Z,20.05
2023-04-16T21:45:48.231Z,17.45
2023-04-16T21:48:16.152Z,32.75
2023-04-16T21:50:43.904Z,17.67
2023-04-16T21:53:11.648Z,21.40
2023-04-16T21:55:39.506Z,16.70
2023-04-16T21:58:07.693Z,22.05
2023-04-16T22:00:35.737Z,18.35
2023-04-16T22:03:05.067Z,16.98
2023-04-16T22:05:33.046Z,19.33
2023-04-16T22:08:08.016Z,22.95
2023-04-16T22:10:45.379Z,18.00
2023-04-16T22:13:12.970Z,18.42
2023-04-16T22:15:40.605Z,18.95
2023-04-16T22:18:10.217Z,20.05
2023-04-16T22:20:38.762Z,21.90
2023-04-16T22:23:06.492Z,18.08
2023-04-16T22:25:35.180Z,19.90
2023-04-16T22:28:02.776Z,16.23
2023-04-16T22:30:30.576Z,17.95
2023-04-16T22:32:58.618Z,17.38
2023-04-16T22:35:27.634Z,18.05
2023-04-16T22:37:55.229Z,23.70
2023-04-16T22:40:23.154Z,18.45
2023-04-16T22:42:50.665Z,18.80
2023-04-16T22:45:18.364Z,17.20
2023-04-16T22:47:46.340Z,20.13
2023-04-16T22:50:13.913Z,17.75
2023-04-16T22:52:42.997Z,23.58
2023-04-16T22:55:10.935Z,17.85
2023-04-16T22:57:38.569Z,19.30
2023-04-16T23:00:07.410Z,19.08
2023-04-16T23:02:36.044Z,20.13
2023-04-16T23:05:04.054Z,26.45
2023-04-16T23:07:32.110Z,18.05
2023-04-16T23:10:01.325Z,18.73
2023-04-16T23:12:28.936Z,20.92
2023-04-16T23:14:56.825Z,19.17
2023-04-16T23:17:24.858Z,19.90
2023-04-16T23:19:52.487Z,20.67
2023-04-16T23:22:20.307Z,16.15
2023-04-16T23:24:48.081Z,25.35
2023-04-16T23:27:17.049Z,18.40
2023-04-16T23:29:44.609Z,18.38
2023-04-16T23:32:12.615Z,19.58
2023-04-16T23:34:40.357Z,22.95
2023-04-16T23:37:07.941Z,18.38
2023-04-16T23:39:35.774Z,15.93
2023-04-16T23:42:03.562Z,16.33
2023-04-16T23:44:32.813Z,14.50
2023-04-16T23:47:01.226Z,20.67
2023-04-16T23:49:28.895Z,19.80
2023-04-16T23:51:56.542Z,17.80
2023-04-16T23:54:24.391Z,18.60
2023-04-16T23:56:51.975Z,18.73
2023-04-16T23:59:19.658Z,21.58
